Aérodrome :
LOGIN :

S'inscrire | Disclaimer

   EN    FR    IT 

 










Légende :    VFR   VFR Marginal   IFR   IFR Intensif   IFR Très Intensif
Visi : 
Plafond : 
>= 8 km
>= 3000ft
5 à 8 km
1000 à 3000 ft
1500m à 5 km
500 à 1000 ft
800 à 1500m
200 à 500 ft
< 800m
< 200 ft
Symboles :   Orages  Brouillard  Fortes neiges  Fortes précipitations  Vent > 20 kt
SIGMETs :   Divers  Orages  Givrage  Turbulence  Onde Orograph.  Cendres Volcan.






- Altitude de l'aérodrome : 202 ft
- Code IATA : LGW


EGKK - London Gatwick

DERNIER METAR :
  • 280150Z 11007KT 4100 HZ BKN007 09/08 Q1015

METARs EXPIRÉS :
  • 280120Z 11004KT 4000 HZ BKN008 09/08 Q1015
  • 280050Z VRB03KT 3300 BR BKN007 08/08 Q1015
  • 280020Z 07004KT 3100 BR BKN006 08/07 Q1015
  • 272350Z 07005KT 3800 BR BKN006 08/07 Q1015
  • 272320Z 08004KT 5000 BR BKN006 08/07 Q1015

TAF TAF EGKK
Valide du 28 à 00h jusqu'au 29 à 06h UTC


272300Z 2800/2906 08006KT 5000 HZ SCT010
TEMPO 2800/2804 3000 DZ BR BKN006
BECMG 2804/2807 BKN010
TEMPO 2804/2810 2500 DZ BR BKN006
BECMG 2810/2813 9999 NSW FEW010
BECMG 2818/2821 6000
PROB30
TEMPO 2820/2824 3000 BR BKN006
BECMG 2900/2903 2000 MIFG BKN004
PROB30
TEMPO 2900/2906 0300 FG VV///



MET'MAP, la Météo Aéronautique d'un coup d'oeil ! - Copyright ORBIFLY Décembre 2007 - Disclaimer

ORBIFLY MET'MAP TEAM :

Programmation & Développement : Alexandra Zaïnal
Sur une idée originale de : Baudouin d'Aumeries
Assistance à la programmation : Marc-Olivier Méhu
Soutien technique & logistique : Manuel Goepfert

Contact : metmap@orbifly.com




SOURCES & CREDITS :

   NOAA